Elton — AEOA — position and weather

sailwx.info

Track history (hours):
 
Tides and Currents Weather Stations Pressure Air Temp Water Temp Dewpoint Dewpoint Depression Visibility Wind Speed Wind Dir Waves Ship Positions

Elton

Last reported at 2018-Jun-21 23:30 UTC. Time now 2018-Jun-21 23:51 UTC.
Position N 46°12' W 123°48'.

Length 20 m.

MMSI: 369970121.

Date/timePositionNaut miles runAvg speedWind from/ knotsBaromVisibWave heightAir tempDewpointWater temp
2018-Jun-21 23:30N 46°12' W 123°48'0 0.0
2018-Jun-21 23:00N 46°12' W 123°48'0 0.0
2018-Jun-21 22:30N 46°12' W 123°48'0 0.0
2018-Jun-21 22:00N 46°12' W 123°48'0 0.0
2018-Jun-21 21:24N 46°12' W 123°48'0 0.0
2018-Jun-21 21:00N 46°12' W 123°48'0 0.0
2018-Jun-21 20:30N 46°12' W 123°48'0 0.0
2018-Jun-21 20:00N 46°12' W 123°48'0 0.0
2018-Jun-21 19:30N 46°12' W 123°48'0 0.0
2018-Jun-21 19:00N 46°12' W 123°48'0 0.0
2018-Jun-21 18:31N 46°12' W 123°48'5 9.0
2018-Jun-21 18:00N 46°14' W 123°43'2 4.3
2018-Jun-21 17:30N 46°15' W 123°40'0 0.1
2018-Jun-21 17:00N 46°15' W 123°40'2 4.0
2018-Jun-21 16:30N 46°16' W 123°37'2 4.9
2018-Jun-21 16:00N 46°15' W 123°41'1 1.2
2018-Jun-21 15:30N 46°15' W 123°42'2 3.6
2018-Jun-21 15:01N 46°16' W 123°39'1 1.4
2018-Jun-21 14:30N 46°15' W 123°40'712.2
2018-Jun-21 13:58N 46°12' W 123°48'0 0.0
2018-Jun-21 13:28N 46°12' W 123°48'0 0.0
2018-Jun-21 12:58N 46°12' W 123°48'0 0.0
2018-Jun-21 12:28N 46°12' W 123°48'0 0.0
2018-Jun-21 11:43N 46°12' W 123°48'0 0.0
2018-Jun-21 11:28N 46°12' W 123°48'0 0.0
2018-Jun-21 10:58N 46°12' W 123°48'0 0.0
2018-Jun-21 10:28N 46°12' W 123°48'0 0.0
2018-Jun-21 09:58N 46°12' W 123°48'0 0.0
2018-Jun-21 09:28N 46°12' W 123°48'0 0.0
2018-Jun-21 08:46N 46°12' W 123°48'0 0.0
2018-Jun-21 08:28N 46°12' W 123°48'0 0.0
2018-Jun-21 07:58N 46°12' W 123°48'0 0.0
2018-Jun-21 07:28N 46°12' W 123°48'0 0.0
2018-Jun-21 06:58N 46°12' W 123°48'0 0.0
2018-Jun-21 06:28N 46°12' W 123°48'0 0.0
2018-Jun-21 05:46N 46°12' W 123°48'0 0.0
2018-Jun-21 05:28N 46°12' W 123°48'0 0.0
2018-Jun-21 04:58N 46°12' W 123°48'0 0.0
2018-Jun-21 04:28N 46°12' W 123°48'0 0.0
2018-Jun-21 03:58N 46°12' W 123°48'0 0.0
2018-Jun-21 01:49N 46°12' W 123°48'0 0.0
2018-Jun-21 00:42N 46°12' W 123°48'0 0.0
2018-Jun-21 00:28N 46°12' W 123°48'0 0.0
2018-Jun-20 23:46N 46°12' W 123°48'0 0.0
2018-Jun-20 23:19N 46°12' W 123°48'0 0.0
2018-Jun-20 22:10N 46°12' W 123°48'0 0.0
2018-Jun-20 20:11N 46°12' W 123°48'210.5
2018-Jun-20 19:58N 46°13' W 123°45'1117.9
2018-Jun-20 19:22N 46°16' W 123°30'512.8
2018-Jun-20 19:00N 46°13' W 123°26'0 0.7
2018-Jun-20 18:24N 46°13' W 123°26'2 4.4
2018-Jun-20 17:56N 46°11' W 123°25'1 1.4
2018-Jun-20 17:24N 46°11' W 123°26'3 6.1
2018-Jun-20 16:58N 46°14' W 123°26'2 3.4
2018-Jun-20 16:24N 46°12' W 123°26'4 8.5
2018-Jun-20 15:56N 46°16' W 123°28'712.3
2018-Jun-20 15:24N 46°15' W 123°37'716.0
2018-Jun-20 14:59N 46°13' W 123°46'2 3.3
2018-Jun-20 14:28N 46°12' W 123°48'0 0.0
2018-Jun-20 13:50N 46°12' W 123°48'0 0.0
2018-Jun-20 13:23N 46°12' W 123°48'0 0.0
2018-Jun-20 12:11N 46°12' W 123°48'0 0.0
2018-Jun-20 11:44N 46°12' W 123°48'0 0.0
2018-Jun-20 11:28N 46°12' W 123°48'0 0.0
2018-Jun-20 10:10N 46°12' W 123°48'0 0.0
2018-Jun-20 09:49N 46°12' W 123°48'0 0.0
2018-Jun-20 09:28N 46°12' W 123°48'0 0.0
2018-Jun-20 09:00N 46°12' W 123°48'0 0.0
2018-Jun-20 08:30N 46°12' W 123°48'0 0.0
2018-Jun-20 08:00N 46°12' W 123°48'0 0.0
2018-Jun-20 07:30N 46°12' W 123°48'0 0.0
2018-Jun-20 06:57N 46°12' W 123°48'0 0.0
2018-Jun-20 05:34N 46°12' W 123°48'0 0.0
2018-Jun-20 05:31N 46°12' W 123°48'0 0.0
2018-Jun-20 05:00N 46°12' W 123°48'0 0.0
2018-Jun-20 04:27N 46°12' W 123°48'0 0.0
2018-Jun-20 04:00N 46°12' W 123°48'0 0.0
2018-Jun-20 03:18N 46°12' W 123°48'0 0.0
2018-Jun-20 02:57N 46°12' W 123°48'0 0.0
2018-Jun-20 02:30N 46°12' W 123°48'0 0.0
2018-Jun-20 01:57N 46°12' W 123°48'0 0.0
2018-Jun-20 01:30N 46°12' W 123°48'0 0.0
2018-Jun-20 01:00N 46°12' W 123°48'0 0.0
2018-Jun-20 00:15N 46°12' W 123°48'0 0.0
2018-Jun-20 00:00N 46°12' W 123°48'0 0.0
2018-Jun-19 23:31N 46°12' W 123°48'0 0.0
2018-Jun-19 23:00N 46°12' W 123°48'2 3.0
2018-Jun-19 22:30N 46°12' W 123°50'0 0.0
2018-Jun-19 22:00N 46°12' W 123°50'1315.5
2018-Jun-19 21:09N 46°16' W 123°32'520.7
2018-Jun-19 20:55N 46°14' W 123°26'615.0
2018-Jun-19 20:30N 46°09' W 123°21'2 3.3
2018-Jun-19 20:01N 46°09' W 123°18'1 1.0
2018-Jun-19 19:30N 46°09' W 123°18'1 2.2
2018-Jun-19 19:01N 46°09' W 123°19'1 2.9
2018-Jun-19 18:31N 46°09' W 123°21'0 0.1
2018-Jun-19 17:45N 46°09' W 123°21'415.7
2018-Jun-19 17:31N 46°11' W 123°26'815.4
2018-Jun-19 17:00N 46°15' W 123°35'1010.7
2018-Jun-19 16:04N 46°12' W 123°48'0 0.0
2018-Jun-19 15:58N 46°12' W 123°48'0 0.0
2018-Jun-19 15:13N 46°12' W 123°48'0 0.0
2018-Jun-19 14:55N 46°12' W 123°48'0 0.0
2018-Jun-19 13:40N 46°12' W 123°48'0 0.0
2018-Jun-19 13:28N 46°12' W 123°48'0 0.0
2018-Jun-19 12:58N 46°12' W 123°48'0 0.0
2018-Jun-19 12:28N 46°12' W 123°48'0 0.0
2018-Jun-19 11:58N 46°12' W 123°48'0 0.0
2018-Jun-19 11:28N 46°12' W 123°48'0 0.0
2018-Jun-19 10:58N 46°12' W 123°48'0 0.0
2018-Jun-19 10:28N 46°12' W 123°48'0 0.0
2018-Jun-19 09:58N 46°12' W 123°48'0 0.0
2018-Jun-19 09:28N 46°12' W 123°48'0 0.0
2018-Jun-19 08:58N 46°12' W 123°48'0 0.0
2018-Jun-19 08:28N 46°12' W 123°48'0 0.0
2018-Jun-19 07:58N 46°12' W 123°48'0 0.0
2018-Jun-19 07:28N 46°12' W 123°48'0 0.0
2018-Jun-19 06:58N 46°12' W 123°48'0 0.0
2018-Jun-19 06:28N 46°12' W 123°48'0 0.0
2018-Jun-19 05:58N 46°12' W 123°48'0 0.0
2018-Jun-19 05:28N 46°12' W 123°48'0 0.0
2018-Jun-19 04:55N 46°12' W 123°48'0 0.0
2018-Jun-19 04:28N 46°12' W 123°48'0 0.0
2018-Jun-19 03:58N 46°12' W 123°48'0 0.0
2018-Jun-19 03:28N 46°12' W 123°48'0 0.0
2018-Jun-19 02:58N 46°12' W 123°48'0 0.0
2018-Jun-19 02:28N 46°12' W 123°48'0 0.0
2018-Jun-19 01:58N 46°12' W 123°48'0 0.0
2018-Jun-19 01:25N 46°12' W 123°48'0 0.0
2018-Jun-19 00:58N 46°12' W 123°48'0 0.0
2018-Jun-19 00:28N 46°12' W 123°48'0 0.0
2018-Jun-18 23:58N 46°12' W 123°48'0 0.0
2018-Jun-18 23:28N 46°12' W 123°48'0 0.0
2018-Jun-18 22:58N 46°12' W 123°48'0 0.0
2018-Jun-18 22:28N 46°12' W 123°48'0 0.0
2018-Jun-18 21:58N 46°12' W 123°48'0 0.0
2018-Jun-18 21:25N 46°12' W 123°48'0 0.0
2018-Jun-18 20:58N 46°12' W 123°48'0 0.0
2018-Jun-18 20:28N 46°12' W 123°48'0 0.0
2018-Jun-18 19:58N 46°12' W 123°48'0 0.0
2018-Jun-18 19:25N 46°12' W 123°48'0 0.0
2018-Jun-18 18:58N 46°12' W 123°48'0 0.0
2018-Jun-18 18:25N 46°12' W 123°48'0 0.0
2018-Jun-18 17:46N 46°12' W 123°48'0 0.0
2018-Jun-18 17:19N 46°12' W 123°48'0 0.0
2018-Jun-18 16:52N 46°12' W 123°48'0 0.0
2018-Jun-18 16:28N 46°12' W 123°48'0 0.0
2018-Jun-18 15:58N 46°12' W 123°48'0 0.0
2018-Jun-18 15:28N 46°12' W 123°48'0 0.0
2018-Jun-18 14:58N 46°12' W 123°48'0 0.0
2018-Jun-18 14:28N 46°12' W 123°48'0 0.0
2018-Jun-18 13:58N 46°12' W 123°48'0 0.0
2018-Jun-18 13:28N 46°12' W 123°48'0 0.0
2018-Jun-18 12:58N 46°12' W 123°48'0 0.0
2018-Jun-18 12:28N 46°12' W 123°48'0 0.0
2018-Jun-18 11:58N 46°12' W 123°48'0 0.0
2018-Jun-18 11:22N 46°12' W 123°48'0 0.0
2018-Jun-18 10:58N 46°12' W 123°48'0 0.0
2018-Jun-18 10:28N 46°12' W 123°48'0 0.0
2018-Jun-18 09:58N 46°12' W 123°48'0 0.0
2018-Jun-18 09:20N 46°12' W 123°48'0 0.0
2018-Jun-18 08:58N 46°12' W 123°48'0 0.0
2018-Jun-18 08:28N 46°12' W 123°48'0 0.0
2018-Jun-18 07:59N 46°12' W 123°48'0 0.0
2018-Jun-18 07:28N 46°12' W 123°48'0 0.0
2018-Jun-18 06:58N 46°12' W 123°48'0 0.0
2018-Jun-18 06:28N 46°12' W 123°48'0 0.0
2018-Jun-18 05:58N 46°12' W 123°48'0 0.0
2018-Jun-18 05:28N 46°12' W 123°48'0 0.0
2018-Jun-18 04:58N 46°12' W 123°48'0 0.0
2018-Jun-18 04:25N 46°12' W 123°48'0 0.0
2018-Jun-18 03:58N 46°12' W 123°48'0 0.0
2018-Jun-18 03:28N 46°12' W 123°48'0 0.0
2018-Jun-18 02:58N 46°12' W 123°48'0 0.0
2018-Jun-18 01:43N 46°12' W 123°48'0 0.0
2018-Jun-18 01:28N 46°12' W 123°48'0 0.0
2018-Jun-18 00:58N 46°12' W 123°48'0 0.0
2018-Jun-18 00:25N 46°12' W 123°48'0 0.0
2018-Jun-17 23:58N 46°12' W 123°48'0 0.0
2018-Jun-17 23:28N 46°12' W 123°48'0 0.0
2018-Jun-17 22:46N 46°12' W 123°48'0 0.0
2018-Jun-17 22:28N 46°12' W 123°48'0 0.0
2018-Jun-17 21:58N 46°12' W 123°48'0 0.0
2018-Jun-17 20:16N 46°12' W 123°48'0 0.0
2018-Jun-17 19:58N 46°12' W 123°48'0 0.0
2018-Jun-17 19:28N 46°12' W 123°48'0 0.0
2018-Jun-17 18:49N 46°12' W 123°48'0 0.0
2018-Jun-17 18:28N 46°12' W 123°48'0 0.0
2018-Jun-17 17:58N 46°12' W 123°48'0 0.0
2018-Jun-17 17:28N 46°12' W 123°48'0 0.0
2018-Jun-17 16:58N 46°12' W 123°48'0 0.0
2018-Jun-17 16:28N 46°12' W 123°48'0 0.0
2018-Jun-17 15:52N 46°12' W 123°48'0 0.0
2018-Jun-17 15:22N 46°12' W 123°48'0 0.0
2018-Jun-17 14:58N 46°12' W 123°48'0 0.0
2018-Jun-17 14:28N 46°12' W 123°48'0 0.0
2018-Jun-17 13:58N 46°12' W 123°48'0 0.0
2018-Jun-17 13:28N 46°12' W 123°48'0 0.0
2018-Jun-17 12:55N 46°12' W 123°48'0 0.0
2018-Jun-17 12:28N 46°12' W 123°48'0 0.0
2018-Jun-17 11:58N 46°12' W 123°48'0 0.0
2018-Jun-17 11:28N 46°12' W 123°48'0 0.0
2018-Jun-17 10:58N 46°12' W 123°48'0 0.0
2018-Jun-17 10:28N 46°12' W 123°48'0 0.0
2018-Jun-17 09:43N 46°12' W 123°48'0 0.0
2018-Jun-17 09:28N 46°12' W 123°48'0 0.0
2018-Jun-17 08:58N 46°12' W 123°48'0 0.0
2018-Jun-17 08:28N 46°12' W 123°48'0 0.0
2018-Jun-17 07:58N 46°12' W 123°48'0 0.0
2018-Jun-17 07:28N 46°12' W 123°48'0 0.0
2018-Jun-17 06:55N 46°12' W 123°48'0 0.0
2018-Jun-17 06:28N 46°12' W 123°48'0 0.0
2018-Jun-17 05:58N 46°12' W 123°48'0 0.0
2018-Jun-17 05:28N 46°12' W 123°48'0 0.0
2018-Jun-17 04:58N 46°12' W 123°48'0 0.0
2018-Jun-17 04:28N 46°12' W 123°48'0 0.0
2018-Jun-17 03:58N 46°12' W 123°48'0 0.0
2018-Jun-17 03:28N 46°12' W 123°48'0 0.0
2018-Jun-17 02:55N 46°12' W 123°48'0 0.0
2018-Jun-17 02:28N 46°12' W 123°48'0 0.0
2018-Jun-17 01:19N 46°12' W 123°48'0 0.0
2018-Jun-17 00:58N 46°12' W 123°48'0 0.0
2018-Jun-17 00:28N 46°12' W 123°48'0 0.0
2018-Jun-16 23:55N 46°12' W 123°48'0 0.0
2018-Jun-16 23:28N 46°12' W 123°48'0 0.0
2018-Jun-16 22:58N 46°12' W 123°48'0 0.0
2018-Jun-16 22:28N 46°12' W 123°48'0 0.0
2018-Jun-16 21:52N 46°12' W 123°48'0 0.0
2018-Jun-16 21:25N 46°12' W 123°48'0 0.0
2018-Jun-16 20:58N 46°12' W 123°48'0 0.0
2018-Jun-16 20:28N 46°12' W 123°48'0 0.0
2018-Jun-16 19:58N 46°12' W 123°48'0 0.0
2018-Jun-16 19:28N 46°12' W 123°48'0 0.0
2018-Jun-16 18:58N 46°12' W 123°48'0 0.0
2018-Jun-16 18:28N 46°12' W 123°48'0 0.0
2018-Jun-16 17:58N 46°12' W 123°48'0 0.0
2018-Jun-16 17:28N 46°12' W 123°48'0 0.0
2018-Jun-16 16:58N 46°12' W 123°48'0 0.0
2018-Jun-16 16:28N 46°12' W 123°48'0 0.0
2018-Jun-16 15:58N 46°12' W 123°48'0 0.0
2018-Jun-16 15:28N 46°12' W 123°48'0 0.0
2018-Jun-16 14:58N 46°12' W 123°48'0 0.0
2018-Jun-16 14:28N 46°12' W 123°48'0 0.0
2018-Jun-16 13:55N 46°12' W 123°48'0 0.0
2018-Jun-16 13:28N 46°12' W 123°48'0 0.0
2018-Jun-16 12:58N 46°12' W 123°48'0 0.0
2018-Jun-16 12:28N 46°12' W 123°48'0 0.0
2018-Jun-16 11:58N 46°12' W 123°48'0 0.0
2018-Jun-16 11:28N 46°12' W 123°48'0 0.0
2018-Jun-16 10:58N 46°12' W 123°48'0 0.0
2018-Jun-16 10:28N 46°12' W 123°48'0 0.0
2018-Jun-16 09:52N 46°12' W 123°48'0 0.0
2018-Jun-16 09:28N 46°12' W 123°48'0 0.0
2018-Jun-16 08:58N 46°12' W 123°48'0 0.0
2018-Jun-16 08:28N 46°12' W 123°48'0 0.0
2018-Jun-16 07:58N 46°12' W 123°48'0 0.0
2018-Jun-16 07:28N 46°12' W 123°48'0 0.0
2018-Jun-16 06:58N 46°12' W 123°48'0 0.0
2018-Jun-16 06:28N 46°12' W 123°48'0 0.0
2018-Jun-16 05:55N 46°12' W 123°48'0 0.0
2018-Jun-16 05:28N 46°12' W 123°48'0 0.0
2018-Jun-16 04:58N 46°12' W 123°48'0 0.0
2018-Jun-16 04:25N 46°12' W 123°48'0 0.0
2018-Jun-16 03:52N 46°12' W 123°48'0 0.0
2018-Jun-16 03:28N 46°12' W 123°48'0 0.0
2018-Jun-16 02:58N 46°12' W 123°48'0 0.0
2018-Jun-16 02:28N 46°12' W 123°48'0 0.0
2018-Jun-16 01:52N 46°12' W 123°48'0 0.0
2018-Jun-16 01:22N 46°12' W 123°48'0 0.0
2018-Jun-16 00:58N 46°12' W 123°48'0 0.0
2018-Jun-16 00:25N 46°12' W 123°48'0 0.0
2018-Jun-15 23:58N 46°12' W 123°48'0 0.0
2018-Jun-15 23:25N 46°12' W 123°48'0 0.0
2018-Jun-15 22:58N 46°12' W 123°48'0 0.0
2018-Jun-15 22:28N 46°12' W 123°48'0 0.0
2018-Jun-15 21:58N 46°12' W 123°48'0 0.0
2018-Jun-15 21:25N 46°12' W 123°48'0 0.0
2018-Jun-15 20:58N 46°12' W 123°48'0 0.0
2018-Jun-15 20:28N 46°12' W 123°48'0 0.0
2018-Jun-15 19:58N 46°12' W 123°48'0 0.0
2018-Jun-15 19:28N 46°12' W 123°48'0 0.0
2018-Jun-15 18:58N 46°12' W 123°48'0 0.0
2018-Jun-15 18:28N 46°12' W 123°48'0 0.0
2018-Jun-15 17:58N 46°12' W 123°48'0 0.0
2018-Jun-15 17:28N 46°12' W 123°48'0 0.0
2018-Jun-15 16:58N 46°12' W 123°48'0 0.0
2018-Jun-15 16:28N 46°12' W 123°48'0 0.0
2018-Jun-15 15:46N 46°12' W 123°48'0 0.0
2018-Jun-15 15:28N 46°12' W 123°48'0 0.0
2018-Jun-15 14:58N 46°12' W 123°48'0 0.0
2018-Jun-15 14:28N 46°12' W 123°48'0 0.0
2018-Jun-15 13:58N 46°12' W 123°48'0 0.0
2018-Jun-15 13:28N 46°12' W 123°48'0 0.0
2018-Jun-15 12:55N 46°12' W 123°48'0 0.0
2018-Jun-15 12:28N 46°12' W 123°48'0 0.0
2018-Jun-15 11:49N 46°12' W 123°48'0 0.0
2018-Jun-15 11:28N 46°12' W 123°48'0 0.0
2018-Jun-15 10:58N 46°12' W 123°48'0 0.0
2018-Jun-15 10:28N 46°12' W 123°48'0 0.0
2018-Jun-15 09:34N 46°12' W 123°48'0 0.0
2018-Jun-15 09:28N 46°12' W 123°48'0 0.0
2018-Jun-15 08:58N 46°12' W 123°48'0 0.0
2018-Jun-15 08:28N 46°12' W 123°48'0 0.0
2018-Jun-15 07:58N 46°12' W 123°48'0 0.0
2018-Jun-15 06:58N 46°12' W 123°48'0 0.0
2018-Jun-15 06:25N 46°12' W 123°48'0 0.0
2018-Jun-15 05:58N 46°12' W 123°48'0 0.0
2018-Jun-15 05:28N 46°12' W 123°48'0 0.0
2018-Jun-15 04:55N 46°12' W 123°48'0 0.0
2018-Jun-15 04:28N 46°12' W 123°48'0 0.0
2018-Jun-15 03:58N 46°12' W 123°48'0 0.0
2018-Jun-15 03:01N 46°12' W 123°48'0 0.0
2018-Jun-15 02:58N 46°12' W 123°48'0 0.0
2018-Jun-15 02:22N 46°12' W 123°48'0 0.0
2018-Jun-15 01:55N 46°12' W 123°48'0 0.0
2018-Jun-15 01:16N 46°12' W 123°48'0 0.0
2018-Jun-15 00:58N 46°12' W 123°48'0 0.0
2018-Jun-15 00:28N 46°12' W 123°48'0 0.0
2018-Jun-14 23:58N 46°12' W 123°48'0 0.0
2018-Jun-14 23:28N 46°12' W 123°48'0 0.0
2018-Jun-14 22:58N 46°12' W 123°48'0 0.0
2018-Jun-14 22:28N 46°12' W 123°48'0 0.0
2018-Jun-14 21:58N 46°12' W 123°48'0 0.0
2018-Jun-14 21:28N 46°12' W 123°48'0 0.0
2018-Jun-14 20:58N 46°12' W 123°48'0 0.0
2018-Jun-14 20:28N 46°12' W 123°48'0 0.0
2018-Jun-14 19:58N 46°12' W 123°48'1 1.8
2018-Jun-14 19:30N 46°12' W 123°47'2 3.3
2018-Jun-14 19:01N 46°12' W 123°49'1019.6
2018-Jun-14 18:31N 46°15' W 123°36'713.6
2018-Jun-14 18:01N 46°15' W 123°26'2 3.4
2018-Jun-14 17:31N 46°14' W 123°25'3 6.2
2018-Jun-14 17:00N 46°16' W 123°28'1 2.6
2018-Jun-14 16:30N 46°15' W 123°27'0 0.5
2018-Jun-14 16:00N 46°15' W 123°27'1 1.3
2018-Jun-14 15:31N 46°16' W 123°28'1 1.3
2018-Jun-14 15:00N 46°16' W 123°28'4 6.9
2018-Jun-14 14:23N 46°15' W 123°35'615.9
2018-Jun-14 14:00N 46°14' W 123°43'4 8.1
2018-Jun-14 13:28N 46°12' W 123°48'0 0.0
2018-Jun-14 12:55N 46°12' W 123°48'0 0.0
2018-Jun-14 12:28N 46°12' W 123°48'0 0.0
2018-Jun-14 11:58N 46°12' W 123°48'0 0.0
2018-Jun-14 11:28N 46°12' W 123°48'0 0.0
2018-Jun-14 10:58N 46°12' W 123°48'0 0.0
2018-Jun-14 10:28N 46°12' W 123°48'0 0.0
2018-Jun-14 09:58N 46°12' W 123°48'0 0.0
2018-Jun-14 09:28N 46°12' W 123°48'0 0.0
2018-Jun-14 08:58N 46°12' W 123°48'0 0.0
2018-Jun-14 08:25N 46°12' W 123°48'0 0.0
2018-Jun-14 07:58N 46°12' W 123°48'0 0.0
2018-Jun-14 07:28N 46°12' W 123°48'0 0.0
2018-Jun-14 06:58N 46°12' W 123°48'0 0.0
2018-Jun-14 06:28N 46°12' W 123°48'0 0.0
2018-Jun-14 05:58N 46°12' W 123°48'0 0.0
2018-Jun-14 05:22N 46°12' W 123°48'0 0.0
2018-Jun-14 04:58N 46°12' W 123°48'0 0.0
2018-Jun-14 04:28N 46°12' W 123°48'0 0.0
2018-Jun-14 03:58N 46°12' W 123°48'0 0.0
2018-Jun-14 03:01N 46°12' W 123°48'0 0.0
2018-Jun-14 02:58N 46°12' W 123°48'0 0.0
2018-Jun-14 02:28N 46°12' W 123°48'0 0.0
2018-Jun-14 01:58N 46°12' W 123°48'0 0.0
2018-Jun-14 01:25N 46°12' W 123°48'0 0.0
2018-Jun-14 00:58N 46°12' W 123°48'0 0.0
2018-Jun-14 00:28N 46°12' W 123°48'0 0.0
2018-Jun-13 23:58N 46°12' W 123°48'0 0.0
2018-Jun-13 23:28N 46°12' W 123°48'0 0.0
2018-Jun-13 22:58N 46°12' W 123°48'0 0.0
2018-Jun-13 22:28N 46°12' W 123°48'0 0.0
2018-Jun-13 21:58N 46°12' W 123°48'0 0.0
2018-Jun-13 21:28N 46°12' W 123°48'0 0.0
2018-Jun-13 20:58N 46°12' W 123°48'0 0.0
2018-Jun-13 20:28N 46°12' W 123°48'0 0.0
2018-Jun-13 19:58N 46°12' W 123°48'0 0.0
2018-Jun-13 19:25N 46°12' W 123°48'0 0.0
2018-Jun-13 18:58N 46°12' W 123°48'0 0.0
2018-Jun-13 18:28N 46°12' W 123°48'3 7.6
2018-Jun-13 18:00N 46°14' W 123°44'713.2
2018-Jun-13 17:31N 46°15' W 123°35'1 1.7
2018-Jun-13 16:51N 46°16' W 123°33'1 1.9
2018-Jun-13 16:31N 46°16' W 123°32'0 0.4
2018-Jun-13 16:01N 46°16' W 123°33'1 1.5
2018-Jun-13 15:30N 46°16' W 123°34'1 2.6
2018-Jun-13 15:01N 46°16' W 123°32'2 4.3
2018-Jun-13 14:31N 46°15' W 123°35'815.3
2018-Jun-13 14:00N 46°13' W 123°45'2 4.5
2018-Jun-13 13:30N 46°12' W 123°48'0 0.0
2018-Jun-13 13:00N 46°12' W 123°48'0 0.0
2018-Jun-13 12:30N 46°12' W 123°48'0 0.0
2018-Jun-13 12:00N 46°12' W 123°48'0 0.0
2018-Jun-13 11:30N 46°12' W 123°48'0 0.0
2018-Jun-13 11:00N 46°12' W 123°48'0 0.0
2018-Jun-13 10:30N 46°12' W 123°48'0 0.0
2018-Jun-13 10:00N 46°12' W 123°48'0 0.0
2018-Jun-13 09:27N 46°12' W 123°48'0 0.0
2018-Jun-13 09:00N 46°12' W 123°48'0 0.0
2018-Jun-13 08:30N 46°12' W 123°48'0 0.0
2018-Jun-13 08:00N 46°12' W 123°48'0 0.0
2018-Jun-13 07:30N 46°12' W 123°48'0 0.0
2018-Jun-13 06:57N 46°12' W 123°48'0 0.0
2018-Jun-13 06:12N 46°12' W 123°48'0 0.0
2018-Jun-13 06:00N 46°12' W 123°48'0 0.0
2018-Jun-13 05:30N 46°12' W 123°48'0 0.0
2018-Jun-13 05:00N 46°12' W 123°48'0 0.0
2018-Jun-13 04:30N 46°12' W 123°48'0 0.0
2018-Jun-13 03:45N 46°12' W 123°48'0 0.0
2018-Jun-13 03:24N 46°12' W 123°48'0 0.0
2018-Jun-13 03:00N 46°12' W 123°48'0 0.0
2018-Jun-13 02:12N 46°12' W 123°48'0 0.0
2018-Jun-13 02:00N 46°12' W 123°48'0 0.0
2018-Jun-13 01:30N 46°12' W 123°48'0 0.0
2018-Jun-13 00:54N 46°12' W 123°48'0 0.0
2018-Jun-13 00:30N 46°12' W 123°48'0 0.0
2018-Jun-13 00:00N 46°12' W 123°48'0 0.0
2018-Jun-12 23:30N 46°12' W 123°48'0 0.0
2018-Jun-12 22:57N 46°12' W 123°48'0 0.0
2018-Jun-12 22:30N 46°12' W 123°48'0 0.0
2018-Jun-12 22:00N 46°12' W 123°48'0 0.0
2018-Jun-12 21:18N 46°12' W 123°48'0 0.0
2018-Jun-12 21:00N 46°12' W 123°48'0 0.0
2018-Jun-12 20:27N 46°12' W 123°48'0 0.0
2018-Jun-12 19:57N 46°12' W 123°48'2 3.4
2018-Jun-12 19:31N 46°12' W 123°50'714.5
2018-Jun-12 19:01N 46°15' W 123°60'4 7.3
2018-Jun-12 18:31N 46°15' W 124°05'0 0.4
2018-Jun-12 18:01N 46°15' W 124°05'0 0.6
2018-Jun-12 17:20N 46°15' W 124°05'1 4.0
2018-Jun-12 17:01N 46°14' W 124°07'1 3.0
2018-Jun-12 16:30N 46°13' W 124°08'1 3.0
2018-Jun-12 16:01N 46°14' W 124°07'1 2.7
2018-Jun-12 15:31N 46°15' W 124°05'0 0.9
2018-Jun-12 15:01N 46°15' W 124°05'2 4.1
2018-Jun-12 14:31N 46°14' W 124°07'510.0
2018-Jun-12 14:00N 46°15' W 124°00'917.8
2018-Jun-12 13:30N 46°12' W 123°48'0 0.4
2018-Jun-12 12:59N 46°12' W 123°48'0 0.0
2018-Jun-12 12:29N 46°12' W 123°48'0 0.0
2018-Jun-12 11:59N 46°12' W 123°48'0 0.0
2018-Jun-12 11:17N 46°12' W 123°48'0 0.0
2018-Jun-12 10:59N 46°12' W 123°48'0 0.0
2018-Jun-12 10:29N 46°12' W 123°48'0 0.0
2018-Jun-12 09:59N 46°12' W 123°48'0 0.0
2018-Jun-12 09:29N 46°12' W 123°48'0 0.0
2018-Jun-12 08:59N 46°12' W 123°48'0 0.0
2018-Jun-12 08:29N 46°12' W 123°48'0 0.0
2018-Jun-12 07:56N 46°12' W 123°48'0 0.0
2018-Jun-12 07:26N 46°12' W 123°48'0 0.0
2018-Jun-12 06:50N 46°12' W 123°48'0 0.0
2018-Jun-12 06:29N 46°12' W 123°48'0 0.0
2018-Jun-12 05:59N 46°12' W 123°48'0 0.0
2018-Jun-12 05:29N 46°12' W 123°48'0 0.0
2018-Jun-12 04:59N 46°12' W 123°48'0 0.0
2018-Jun-12 04:29N 46°12' W 123°48'0 0.0
2018-Jun-12 03:56N 46°12' W 123°48'0 0.0
2018-Jun-12 03:14N 46°12' W 123°48'0 0.0
2018-Jun-12 02:59N 46°12' W 123°48'0 0.0
2018-Jun-12 02:17N 46°12' W 123°48'0 0.0
2018-Jun-12 01:59N 46°12' W 123°48'0 0.0
2018-Jun-12 01:29N 46°12' W 123°48'0 0.0
2018-Jun-12 00:59N 46°12' W 123°48'0 0.0
2018-Jun-12 00:29N 46°12' W 123°48'0 0.0
2018-Jun-11 23:59N 46°12' W 123°48'  
Track history (hours):
 
Tides and Currents Weather Stations Pressure Air Temp Water Temp Dewpoint Dewpoint Depression Visibility Wind Speed Wind Dir Waves Ship Positions

Elton

Last reported at 2018-Jun-21 23:30 UTC. Time now 2018-Jun-21 23:51 UTC.
Position N 46°12' W 123°48'.

Length 20 m.

MMSI: 369970121.

Date/timePositionNaut miles runAvg speedWind from/ knotsBaromVisibWave heightAir tempDewpointWater temp
2018-Jun-21 23:30N 46°12' W 123°48'0 0.0
2018-Jun-21 23:00N 46°12' W 123°48'0 0.0
2018-Jun-21 22:30N 46°12' W 123°48'0 0.0
2018-Jun-21 22:00N 46°12' W 123°48'0 0.0
2018-Jun-21 21:24N 46°12' W 123°48'0 0.0
2018-Jun-21 21:00N 46°12' W 123°48'0 0.0
2018-Jun-21 20:30N 46°12' W 123°48'0 0.0
2018-Jun-21 20:00N 46°12' W 123°48'0 0.0
2018-Jun-21 19:30N 46°12' W 123°48'0 0.0
2018-Jun-21 19:00N 46°12' W 123°48'0 0.0
2018-Jun-21 18:31N 46°12' W 123°48'5 9.0
2018-Jun-21 18:00N 46°14' W 123°43'2 4.3
2018-Jun-21 17:30N 46°15' W 123°40'0 0.1
2018-Jun-21 17:00N 46°15' W 123°40'2 4.0
2018-Jun-21 16:30N 46°16' W 123°37'2 4.9
2018-Jun-21 16:00N 46°15' W 123°41'1 1.2
2018-Jun-21 15:30N 46°15' W 123°42'2 3.6
2018-Jun-21 15:01N 46°16' W 123°39'1 1.4
2018-Jun-21 14:30N 46°15' W 123°40'712.2
2018-Jun-21 13:58N 46°12' W 123°48'0 0.0
2018-Jun-21 13:28N 46°12' W 123°48'0 0.0
2018-Jun-21 12:58N 46°12' W 123°48'0 0.0
2018-Jun-21 12:28N 46°12' W 123°48'0 0.0
2018-Jun-21 11:43N 46°12' W 123°48'0 0.0
2018-Jun-21 11:28N 46°12' W 123°48'0 0.0
2018-Jun-21 10:58N 46°12' W 123°48'0 0.0
2018-Jun-21 10:28N 46°12' W 123°48'0 0.0
2018-Jun-21 09:58N 46°12' W 123°48'0 0.0
2018-Jun-21 09:28N 46°12' W 123°48'0 0.0
2018-Jun-21 08:46N 46°12' W 123°48'0 0.0
2018-Jun-21 08:28N 46°12' W 123°48'0 0.0
2018-Jun-21 07:58N 46°12' W 123°48'0 0.0
2018-Jun-21 07:28N 46°12' W 123°48'0 0.0
2018-Jun-21 06:58N 46°12' W 123°48'0 0.0
2018-Jun-21 06:28N 46°12' W 123°48'0 0.0
2018-Jun-21 05:46N 46°12' W 123°48'0 0.0
2018-Jun-21 05:28N 46°12' W 123°48'0 0.0
2018-Jun-21 04:58N 46°12' W 123°48'0 0.0
2018-Jun-21 04:28N 46°12' W 123°48'0 0.0
2018-Jun-21 03:58N 46°12' W 123°48'0 0.0
2018-Jun-21 01:49N 46°12' W 123°48'0 0.0
2018-Jun-21 00:42N 46°12' W 123°48'0 0.0
2018-Jun-21 00:28N 46°12' W 123°48'0 0.0
2018-Jun-20 23:46N 46°12' W 123°48'0 0.0
2018-Jun-20 23:19N 46°12' W 123°48'0 0.0
2018-Jun-20 22:10N 46°12' W 123°48'0 0.0
2018-Jun-20 20:11N 46°12' W 123°48'210.5
2018-Jun-20 19:58N 46°13' W 123°45'1117.9
2018-Jun-20 19:22N 46°16' W 123°30'512.8
2018-Jun-20 19:00N 46°13' W 123°26'0 0.7
2018-Jun-20 18:24N 46°13' W 123°26'2 4.4
2018-Jun-20 17:56N 46°11' W 123°25'1 1.4
2018-Jun-20 17:24N 46°11' W 123°26'3 6.1
2018-Jun-20 16:58N 46°14' W 123°26'2 3.4
2018-Jun-20 16:24N 46°12' W 123°26'4 8.5
2018-Jun-20 15:56N 46°16' W 123°28'712.3
2018-Jun-20 15:24N 46°15' W 123°37'716.0
2018-Jun-20 14:59N 46°13' W 123°46'2 3.3
2018-Jun-20 14:28N 46°12' W 123°48'0 0.0
2018-Jun-20 13:50N 46°12' W 123°48'0 0.0
2018-Jun-20 13:23N 46°12' W 123°48'0 0.0
2018-Jun-20 12:11N 46°12' W 123°48'0 0.0
2018-Jun-20 11:44N 46°12' W 123°48'0 0.0
2018-Jun-20 11:28N 46°12' W 123°48'0 0.0
2018-Jun-20 10:10N 46°12' W 123°48'0 0.0
2018-Jun-20 09:49N 46°12' W 123°48'0 0.0
2018-Jun-20 09:28N 46°12' W 123°48'0 0.0
2018-Jun-20 09:00N 46°12' W 123°48'0 0.0
2018-Jun-20 08:30N 46°12' W 123°48'0 0.0
2018-Jun-20 08:00N 46°12' W 123°48'0 0.0
2018-Jun-20 07:30N 46°12' W 123°48'0 0.0
2018-Jun-20 06:57N 46°12' W 123°48'0 0.0
2018-Jun-20 05:34N 46°12' W 123°48'0 0.0
2018-Jun-20 05:31N 46°12' W 123°48'0 0.0
2018-Jun-20 05:00N 46°12' W 123°48'0 0.0
2018-Jun-20 04:27N 46°12' W 123°48'0 0.0
2018-Jun-20 04:00N 46°12' W 123°48'0 0.0
2018-Jun-20 03:18N 46°12' W 123°48'0 0.0
2018-Jun-20 02:57N 46°12' W 123°48'0 0.0
2018-Jun-20 02:30N 46°12' W 123°48'0 0.0
2018-Jun-20 01:57N 46°12' W 123°48'0 0.0
2018-Jun-20 01:30N 46°12' W 123°48'0 0.0
2018-Jun-20 01:00N 46°12' W 123°48'0 0.0
2018-Jun-20 00:15N 46°12' W 123°48'0 0.0
2018-Jun-20 00:00N 46°12' W 123°48'0 0.0
2018-Jun-19 23:31N 46°12' W 123°48'0 0.0
2018-Jun-19 23:00N 46°12' W 123°48'2 3.0
2018-Jun-19 22:30N 46°12' W 123°50'0 0.0
2018-Jun-19 22:00N 46°12' W 123°50'1315.5
2018-Jun-19 21:09N 46°16' W 123°32'520.7
2018-Jun-19 20:55N 46°14' W 123°26'615.0
2018-Jun-19 20:30N 46°09' W 123°21'2 3.3
2018-Jun-19 20:01N 46°09' W 123°18'1 1.0
2018-Jun-19 19:30N 46°09' W 123°18'1 2.2
2018-Jun-19 19:01N 46°09' W 123°19'1 2.9
2018-Jun-19 18:31N 46°09' W 123°21'0 0.1
2018-Jun-19 17:45N 46°09' W 123°21'415.7
2018-Jun-19 17:31N 46°11' W 123°26'815.4
2018-Jun-19 17:00N 46°15' W 123°35'1010.7
2018-Jun-19 16:04N 46°12' W 123°48'0 0.0
2018-Jun-19 15:58N 46°12' W 123°48'0 0.0
2018-Jun-19 15:13N 46°12' W 123°48'0 0.0
2018-Jun-19 14:55N 46°12' W 123°48'0 0.0
2018-Jun-19 13:40N 46°12' W 123°48'0 0.0
2018-Jun-19 13:28N 46°12' W 123°48'0 0.0
2018-Jun-19 12:58N 46°12' W 123°48'0 0.0
2018-Jun-19 12:28N 46°12' W 123°48'0 0.0
2018-Jun-19 11:58N 46°12' W 123°48'0 0.0
2018-Jun-19 11:28N 46°12' W 123°48'0 0.0
2018-Jun-19 10:58N 46°12' W 123°48'0 0.0
2018-Jun-19 10:28N 46°12' W 123°48'0 0.0
2018-Jun-19 09:58N 46°12' W 123°48'0 0.0
2018-Jun-19 09:28N 46°12' W 123°48'0 0.0
2018-Jun-19 08:58N 46°12' W 123°48'0 0.0
2018-Jun-19 08:28N 46°12' W 123°48'0 0.0
2018-Jun-19 07:58N 46°12' W 123°48'0 0.0
2018-Jun-19 07:28N 46°12' W 123°48'0 0.0
2018-Jun-19 06:58N 46°12' W 123°48'0 0.0
2018-Jun-19 06:28N 46°12' W 123°48'0 0.0
2018-Jun-19 05:58N 46°12' W 123°48'0 0.0
2018-Jun-19 05:28N 46°12' W 123°48'0 0.0
2018-Jun-19 04:55N 46°12' W 123°48'0 0.0
2018-Jun-19 04:28N 46°12' W 123°48'0 0.0
2018-Jun-19 03:58N 46°12' W 123°48'0 0.0
2018-Jun-19 03:28N 46°12' W 123°48'0 0.0
2018-Jun-19 02:58N 46°12' W 123°48'0 0.0
2018-Jun-19 02:28N 46°12' W 123°48'0 0.0
2018-Jun-19 01:58N 46°12' W 123°48'0 0.0
2018-Jun-19 01:25N 46°12' W 123°48'0 0.0
2018-Jun-19 00:58N 46°12' W 123°48'0 0.0
2018-Jun-19 00:28N 46°12' W 123°48'0 0.0
2018-Jun-18 23:58N 46°12' W 123°48'0 0.0
2018-Jun-18 23:28N 46°12' W 123°48'0 0.0
2018-Jun-18 22:58N 46°12' W 123°48'0 0.0
2018-Jun-18 22:28N 46°12' W 123°48'0 0.0
2018-Jun-18 21:58N 46°12' W 123°48'0 0.0
2018-Jun-18 21:25N 46°12' W 123°48'0 0.0
2018-Jun-18 20:58N 46°12' W 123°48'0 0.0
2018-Jun-18 20:28N 46°12' W 123°48'0 0.0
2018-Jun-18 19:58N 46°12' W 123°48'0 0.0
2018-Jun-18 19:25N 46°12' W 123°48'0 0.0
2018-Jun-18 18:58N 46°12' W 123°48'0 0.0
2018-Jun-18 18:25N 46°12' W 123°48'0 0.0
2018-Jun-18 17:46N 46°12' W 123°48'0 0.0
2018-Jun-18 17:19N 46°12' W 123°48'0 0.0
2018-Jun-18 16:52N 46°12' W 123°48'0 0.0
2018-Jun-18 16:28N 46°12' W 123°48'0 0.0
2018-Jun-18 15:58N 46°12' W 123°48'0 0.0
2018-Jun-18 15:28N 46°12' W 123°48'0 0.0
2018-Jun-18 14:58N 46°12' W 123°48'0 0.0
2018-Jun-18 14:28N 46°12' W 123°48'0 0.0
2018-Jun-18 13:58N 46°12' W 123°48'0 0.0
2018-Jun-18 13:28N 46°12' W 123°48'0 0.0
2018-Jun-18 12:58N 46°12' W 123°48'0 0.0
2018-Jun-18 12:28N 46°12' W 123°48'0 0.0
2018-Jun-18 11:58N 46°12' W 123°48'0 0.0
2018-Jun-18 11:22N 46°12' W 123°48'0 0.0
2018-Jun-18 10:58N 46°12' W 123°48'0 0.0
2018-Jun-18 10:28N 46°12' W 123°48'0 0.0
2018-Jun-18 09:58N 46°12' W 123°48'0 0.0
2018-Jun-18 09:20N 46°12' W 123°48'0 0.0
2018-Jun-18 08:58N 46°12' W 123°48'0 0.0
2018-Jun-18 08:28N 46°12' W 123°48'0 0.0
2018-Jun-18 07:59N 46°12' W 123°48'0 0.0
2018-Jun-18 07:28N 46°12' W 123°48'0 0.0
2018-Jun-18 06:58N 46°12' W 123°48'0 0.0
2018-Jun-18 06:28N 46°12' W 123°48'0 0.0
2018-Jun-18 05:58N 46°12' W 123°48'0 0.0
2018-Jun-18 05:28N 46°12' W 123°48'0 0.0
2018-Jun-18 04:58N 46°12' W 123°48'0 0.0
2018-Jun-18 04:25N 46°12' W 123°48'0 0.0
2018-Jun-18 03:58N 46°12' W 123°48'0 0.0
2018-Jun-18 03:28N 46°12' W 123°48'0 0.0
2018-Jun-18 02:58N 46°12' W 123°48'0 0.0
2018-Jun-18 01:43N 46°12' W 123°48'0 0.0
2018-Jun-18 01:28N 46°12' W 123°48'0 0.0
2018-Jun-18 00:58N 46°12' W 123°48'0 0.0
2018-Jun-18 00:25N 46°12' W 123°48'0 0.0
2018-Jun-17 23:58N 46°12' W 123°48'0 0.0
2018-Jun-17 23:28N 46°12' W 123°48'0 0.0
2018-Jun-17 22:46N 46°12' W 123°48'0 0.0
2018-Jun-17 22:28N 46°12' W 123°48'0 0.0
2018-Jun-17 21:58N 46°12' W 123°48'0 0.0
2018-Jun-17 20:16N 46°12' W 123°48'0 0.0
2018-Jun-17 19:58N 46°12' W 123°48'0 0.0
2018-Jun-17 19:28N 46°12' W 123°48'0 0.0
2018-Jun-17 18:49N 46°12' W 123°48'0 0.0
2018-Jun-17 18:28N 46°12' W 123°48'0 0.0
2018-Jun-17 17:58N 46°12' W 123°48'0 0.0
2018-Jun-17 17:28N 46°12' W 123°48'0 0.0
2018-Jun-17 16:58N 46°12' W 123°48'0 0.0
2018-Jun-17 16:28N 46°12' W 123°48'0 0.0
2018-Jun-17 15:52N 46°12' W 123°48'0 0.0
2018-Jun-17 15:22N 46°12' W 123°48'0 0.0
2018-Jun-17 14:58N 46°12' W 123°48'0 0.0
2018-Jun-17 14:28N 46°12' W 123°48'0 0.0
2018-Jun-17 13:58N 46°12' W 123°48'0 0.0
2018-Jun-17 13:28N 46°12' W 123°48'0 0.0
2018-Jun-17 12:55N 46°12' W 123°48'0 0.0
2018-Jun-17 12:28N 46°12' W 123°48'0 0.0
2018-Jun-17 11:58N 46°12' W 123°48'0 0.0
2018-Jun-17 11:28N 46°12' W 123°48'0 0.0
2018-Jun-17 10:58N 46°12' W 123°48'0 0.0
2018-Jun-17 10:28N 46°12' W 123°48'0 0.0
2018-Jun-17 09:43N 46°12' W 123°48'0 0.0
2018-Jun-17 09:28N 46°12' W 123°48'0 0.0
2018-Jun-17 08:58N 46°12' W 123°48'0 0.0
2018-Jun-17 08:28N 46°12' W 123°48'0 0.0
2018-Jun-17 07:58N 46°12' W 123°48'0 0.0
2018-Jun-17 07:28N 46°12' W 123°48'0 0.0
2018-Jun-17 06:55N 46°12' W 123°48'0 0.0
2018-Jun-17 06:28N 46°12' W 123°48'0 0.0
2018-Jun-17 05:58N 46°12' W 123°48'0 0.0
2018-Jun-17 05:28N 46°12' W 123°48'0 0.0
2018-Jun-17 04:58N 46°12' W 123°48'0 0.0
2018-Jun-17 04:28N 46°12' W 123°48'0 0.0
2018-Jun-17 03:58N 46°12' W 123°48'0 0.0
2018-Jun-17 03:28N 46°12' W 123°48'0 0.0
2018-Jun-17 02:55N 46°12' W 123°48'0 0.0
2018-Jun-17 02:28N 46°12' W 123°48'0 0.0
2018-Jun-17 01:19N 46°12' W 123°48'0 0.0
2018-Jun-17 00:58N 46°12' W 123°48'0 0.0
2018-Jun-17 00:28N 46°12' W 123°48'0 0.0
2018-Jun-16 23:55N 46°12' W 123°48'0 0.0
2018-Jun-16 23:28N 46°12' W 123°48'0 0.0
2018-Jun-16 22:58N 46°12' W 123°48'0 0.0
2018-Jun-16 22:28N 46°12' W 123°48'0 0.0
2018-Jun-16 21:52N 46°12' W 123°48'0 0.0
2018-Jun-16 21:25N 46°12' W 123°48'0 0.0
2018-Jun-16 20:58N 46°12' W 123°48'0 0.0
2018-Jun-16 20:28N 46°12' W 123°48'0 0.0
2018-Jun-16 19:58N 46°12' W 123°48'0 0.0
2018-Jun-16 19:28N 46°12' W 123°48'0 0.0
2018-Jun-16 18:58N 46°12' W 123°48'0 0.0
2018-Jun-16 18:28N 46°12' W 123°48'0 0.0
2018-Jun-16 17:58N 46°12' W 123°48'0 0.0
2018-Jun-16 17:28N 46°12' W 123°48'0 0.0
2018-Jun-16 16:58N 46°12' W 123°48'0 0.0
2018-Jun-16 16:28N 46°12' W 123°48'0 0.0
2018-Jun-16 15:58N 46°12' W 123°48'0 0.0
2018-Jun-16 15:28N 46°12' W 123°48'0 0.0
2018-Jun-16 14:58N 46°12' W 123°48'0 0.0
2018-Jun-16 14:28N 46°12' W 123°48'0 0.0
2018-Jun-16 13:55N 46°12' W 123°48'0 0.0
2018-Jun-16 13:28N 46°12' W 123°48'0 0.0
2018-Jun-16 12:58N 46°12' W 123°48'0 0.0
2018-Jun-16 12:28N 46°12' W 123°48'0 0.0
2018-Jun-16 11:58N 46°12' W 123°48'0 0.0
2018-Jun-16 11:28N 46°12' W 123°48'0 0.0
2018-Jun-16 10:58N 46°12' W 123°48'0 0.0
2018-Jun-16 10:28N 46°12' W 123°48'0 0.0
2018-Jun-16 09:52N 46°12' W 123°48'0 0.0
2018-Jun-16 09:28N 46°12' W 123°48'0 0.0
2018-Jun-16 08:58N 46°12' W 123°48'0 0.0
2018-Jun-16 08:28N 46°12' W 123°48'0 0.0
2018-Jun-16 07:58N 46°12' W 123°48'0 0.0
2018-Jun-16 07:28N 46°12' W 123°48'0 0.0
2018-Jun-16 06:58N 46°12' W 123°48'0 0.0
2018-Jun-16 06:28N 46°12' W 123°48'0 0.0
2018-Jun-16 05:55N 46°12' W 123°48'0 0.0
2018-Jun-16 05:28N 46°12' W 123°48'0 0.0
2018-Jun-16 04:58N 46°12' W 123°48'0 0.0
2018-Jun-16 04:25N 46°12' W 123°48'0 0.0
2018-Jun-16 03:52N 46°12' W 123°48'0 0.0
2018-Jun-16 03:28N 46°12' W 123°48'0 0.0
2018-Jun-16 02:58N 46°12' W 123°48'0 0.0
2018-Jun-16 02:28N 46°12' W 123°48'0 0.0
2018-Jun-16 01:52N 46°12' W 123°48'0 0.0
2018-Jun-16 01:22N 46°12' W 123°48'0 0.0
2018-Jun-16 00:58N 46°12' W 123°48'0 0.0
2018-Jun-16 00:25N 46°12' W 123°48'0 0.0
2018-Jun-15 23:58N 46°12' W 123°48'0 0.0
2018-Jun-15 23:25N 46°12' W 123°48'0 0.0
2018-Jun-15 22:58N 46°12' W 123°48'0 0.0
2018-Jun-15 22:28N 46°12' W 123°48'0 0.0
2018-Jun-15 21:58N 46°12' W 123°48'0 0.0
2018-Jun-15 21:25N 46°12' W 123°48'0 0.0
2018-Jun-15 20:58N 46°12' W 123°48'0 0.0
2018-Jun-15 20:28N 46°12' W 123°48'0 0.0
2018-Jun-15 19:58N 46°12' W 123°48'0 0.0
2018-Jun-15 19:28N 46°12' W 123°48'0 0.0
2018-Jun-15 18:58N 46°12' W 123°48'0 0.0
2018-Jun-15 18:28N 46°12' W 123°48'0 0.0
2018-Jun-15 17:58N 46°12' W 123°48'0 0.0
2018-Jun-15 17:28N 46°12' W 123°48'0 0.0
2018-Jun-15 16:58N 46°12' W 123°48'0 0.0
2018-Jun-15 16:28N 46°12' W 123°48'0 0.0
2018-Jun-15 15:46N 46°12' W 123°48'0 0.0
2018-Jun-15 15:28N 46°12' W 123°48'0 0.0
2018-Jun-15 14:58N 46°12' W 123°48'0 0.0
2018-Jun-15 14:28N 46°12' W 123°48'0 0.0
2018-Jun-15 13:58N 46°12' W 123°48'0 0.0
2018-Jun-15 13:28N 46°12' W 123°48'0 0.0
2018-Jun-15 12:55N 46°12' W 123°48'0 0.0
2018-Jun-15 12:28N 46°12' W 123°48'0 0.0
2018-Jun-15 11:49N 46°12' W 123°48'0 0.0
2018-Jun-15 11:28N 46°12' W 123°48'0 0.0
2018-Jun-15 10:58N 46°12' W 123°48'0 0.0
2018-Jun-15 10:28N 46°12' W 123°48'0 0.0
2018-Jun-15 09:34N 46°12' W 123°48'0 0.0
2018-Jun-15 09:28N 46°12' W 123°48'0 0.0
2018-Jun-15 08:58N 46°12' W 123°48'0 0.0
2018-Jun-15 08:28N 46°12' W 123°48'0 0.0
2018-Jun-15 07:58N 46°12' W 123°48'0 0.0
2018-Jun-15 06:58N 46°12' W 123°48'0 0.0
2018-Jun-15 06:25N 46°12' W 123°48'0 0.0
2018-Jun-15 05:58N 46°12' W 123°48'0 0.0
2018-Jun-15 05:28N 46°12' W 123°48'0 0.0
2018-Jun-15 04:55N 46°12' W 123°48'0 0.0
2018-Jun-15 04:28N 46°12' W 123°48'0 0.0
2018-Jun-15 03:58N 46°12' W 123°48'0 0.0
2018-Jun-15 03:01N 46°12' W 123°48'0 0.0
2018-Jun-15 02:58N 46°12' W 123°48'0 0.0
2018-Jun-15 02:22N 46°12' W 123°48'0 0.0
2018-Jun-15 01:55N 46°12' W 123°48'0 0.0
2018-Jun-15 01:16N 46°12' W 123°48'0 0.0
2018-Jun-15 00:58N 46°12' W 123°48'0 0.0
2018-Jun-15 00:28N 46°12' W 123°48'0 0.0
2018-Jun-14 23:58N 46°12' W 123°48'0 0.0
2018-Jun-14 23:28N 46°12' W 123°48'0 0.0
2018-Jun-14 22:58N 46°12' W 123°48'0 0.0
2018-Jun-14 22:28N 46°12' W 123°48'0 0.0
2018-Jun-14 21:58N 46°12' W 123°48'0 0.0
2018-Jun-14 21:28N 46°12' W 123°48'0 0.0
2018-Jun-14 20:58N 46°12' W 123°48'0 0.0
2018-Jun-14 20:28N 46°12' W 123°48'0 0.0
2018-Jun-14 19:58N 46°12' W 123°48'1 1.8
2018-Jun-14 19:30N 46°12' W 123°47'2 3.3
2018-Jun-14 19:01N 46°12' W 123°49'1019.6
2018-Jun-14 18:31N 46°15' W 123°36'713.6
2018-Jun-14 18:01N 46°15' W 123°26'2 3.4
2018-Jun-14 17:31N 46°14' W 123°25'3 6.2
2018-Jun-14 17:00N 46°16' W 123°28'1 2.6
2018-Jun-14 16:30N 46°15' W 123°27'0 0.5
2018-Jun-14 16:00N 46°15' W 123°27'1 1.3
2018-Jun-14 15:31N 46°16' W 123°28'1 1.3
2018-Jun-14 15:00N 46°16' W 123°28'4 6.9
2018-Jun-14 14:23N 46°15' W 123°35'615.9
2018-Jun-14 14:00N 46°14' W 123°43'4 8.1
2018-Jun-14 13:28N 46°12' W 123°48'0 0.0
2018-Jun-14 12:55N 46°12' W 123°48'0 0.0
2018-Jun-14 12:28N 46°12' W 123°48'0 0.0
2018-Jun-14 11:58N 46°12' W 123°48'0 0.0
2018-Jun-14 11:28N 46°12' W 123°48'0 0.0
2018-Jun-14 10:58N 46°12' W 123°48'0 0.0
2018-Jun-14 10:28N 46°12' W 123°48'0 0.0
2018-Jun-14 09:58N 46°12' W 123°48'0 0.0
2018-Jun-14 09:28N 46°12' W 123°48'0 0.0
2018-Jun-14 08:58N 46°12' W 123°48'0 0.0
2018-Jun-14 08:25N 46°12' W 123°48'0 0.0
2018-Jun-14 07:58N 46°12' W 123°48'0 0.0
2018-Jun-14 07:28N 46°12' W 123°48'0 0.0
2018-Jun-14 06:58N 46°12' W 123°48'0 0.0
2018-Jun-14 06:28N 46°12' W 123°48'0 0.0
2018-Jun-14 05:58N 46°12' W 123°48'0 0.0
2018-Jun-14 05:22N 46°12' W 123°48'0 0.0
2018-Jun-14 04:58N 46°12' W 123°48'0 0.0
2018-Jun-14 04:28N 46°12' W 123°48'0 0.0
2018-Jun-14 03:58N 46°12' W 123°48'0 0.0
2018-Jun-14 03:01N 46°12' W 123°48'0 0.0
2018-Jun-14 02:58N 46°12' W 123°48'0 0.0
2018-Jun-14 02:28N 46°12' W 123°48'0 0.0
2018-Jun-14 01:58N 46°12' W 123°48'0 0.0
2018-Jun-14 01:25N 46°12' W 123°48'0 0.0
2018-Jun-14 00:58N 46°12' W 123°48'0 0.0
2018-Jun-14 00:28N 46°12' W 123°48'0 0.0
2018-Jun-13 23:58N 46°12' W 123°48'0 0.0
2018-Jun-13 23:28N 46°12' W 123°48'0 0.0
2018-Jun-13 22:58N 46°12' W 123°48'0 0.0
2018-Jun-13 22:28N 46°12' W 123°48'0 0.0
2018-Jun-13 21:58N 46°12' W 123°48'0 0.0
2018-Jun-13 21:28N 46°12' W 123°48'0 0.0
2018-Jun-13 20:58N 46°12' W 123°48'0 0.0
2018-Jun-13 20:28N 46°12' W 123°48'0 0.0
2018-Jun-13 19:58N 46°12' W 123°48'0 0.0
2018-Jun-13 19:25N 46°12' W 123°48'0 0.0
2018-Jun-13 18:58N 46°12' W 123°48'0 0.0
2018-Jun-13 18:28N 46°12' W 123°48'3 7.6
2018-Jun-13 18:00N 46°14' W 123°44'713.2
2018-Jun-13 17:31N 46°15' W 123°35'1 1.7
2018-Jun-13 16:51N 46°16' W 123°33'1 1.9
2018-Jun-13 16:31N 46°16' W 123°32'0 0.4
2018-Jun-13 16:01N 46°16' W 123°33'1 1.5
2018-Jun-13 15:30N 46°16' W 123°34'1 2.6
2018-Jun-13 15:01N 46°16' W 123°32'2 4.3
2018-Jun-13 14:31N 46°15' W 123°35'815.3
2018-Jun-13 14:00N 46°13' W 123°45'2 4.5
2018-Jun-13 13:30N 46°12' W 123°48'0 0.0
2018-Jun-13 13:00N 46°12' W 123°48'0 0.0
2018-Jun-13 12:30N 46°12' W 123°48'0 0.0
2018-Jun-13 12:00N 46°12' W 123°48'0 0.0
2018-Jun-13 11:30N 46°12' W 123°48'0 0.0
2018-Jun-13 11:00N 46°12' W 123°48'0 0.0
2018-Jun-13 10:30N 46°12' W 123°48'0 0.0
2018-Jun-13 10:00N 46°12' W 123°48'0 0.0
2018-Jun-13 09:27N 46°12' W 123°48'0 0.0
2018-Jun-13 09:00N 46°12' W 123°48'0 0.0
2018-Jun-13 08:30N 46°12' W 123°48'0 0.0
2018-Jun-13 08:00N 46°12' W 123°48'0 0.0
2018-Jun-13 07:30N 46°12' W 123°48'0 0.0
2018-Jun-13 06:57N 46°12' W 123°48'0 0.0
2018-Jun-13 06:12N 46°12' W 123°48'0 0.0
2018-Jun-13 06:00N 46°12' W 123°48'0 0.0
2018-Jun-13 05:30N 46°12' W 123°48'0 0.0
2018-Jun-13 05:00N 46°12' W 123°48'0 0.0
2018-Jun-13 04:30N 46°12' W 123°48'0 0.0
2018-Jun-13 03:45N 46°12' W 123°48'0 0.0
2018-Jun-13 03:24N 46°12' W 123°48'0 0.0
2018-Jun-13 03:00N 46°12' W 123°48'0 0.0
2018-Jun-13 02:12N 46°12' W 123°48'0 0.0
2018-Jun-13 02:00N 46°12' W 123°48'0 0.0
2018-Jun-13 01:30N 46°12' W 123°48'0 0.0
2018-Jun-13 00:54N 46°12' W 123°48'0 0.0
2018-Jun-13 00:30N 46°12' W 123°48'0 0.0
2018-Jun-13 00:00N 46°12' W 123°48'0 0.0
2018-Jun-12 23:30N 46°12' W 123°48'0 0.0
2018-Jun-12 22:57N 46°12' W 123°48'0 0.0
2018-Jun-12 22:30N 46°12' W 123°48'0 0.0
2018-Jun-12 22:00N 46°12' W 123°48'0 0.0
2018-Jun-12 21:18N 46°12' W 123°48'0 0.0
2018-Jun-12 21:00N 46°12' W 123°48'0 0.0
2018-Jun-12 20:27N 46°12' W 123°48'0 0.0
2018-Jun-12 19:57N 46°12' W 123°48'2 3.4
2018-Jun-12 19:31N 46°12' W 123°50'714.5
2018-Jun-12 19:01N 46°15' W 123°60'4 7.3
2018-Jun-12 18:31N 46°15' W 124°05'0 0.4
2018-Jun-12 18:01N 46°15' W 124°05'0 0.6
2018-Jun-12 17:20N 46°15' W 124°05'1 4.0
2018-Jun-12 17:01N 46°14' W 124°07'1 3.0
2018-Jun-12 16:30N 46°13' W 124°08'1 3.0
2018-Jun-12 16:01N 46°14' W 124°07'1 2.7
2018-Jun-12 15:31N 46°15' W 124°05'0 0.9
2018-Jun-12 15:01N 46°15' W 124°05'2 4.1
2018-Jun-12 14:31N 46°14' W 124°07'510.0
2018-Jun-12 14:00N 46°15' W 124°00'917.8
2018-Jun-12 13:30N 46°12' W 123°48'0 0.4
2018-Jun-12 12:59N 46°12' W 123°48'0 0.0
2018-Jun-12 12:29N 46°12' W 123°48'0 0.0
2018-Jun-12 11:59N 46°12' W 123°48'0 0.0
2018-Jun-12 11:17N 46°12' W 123°48'0 0.0
2018-Jun-12 10:59N 46°12' W 123°48'0 0.0
2018-Jun-12 10:29N 46°12' W 123°48'0 0.0
2018-Jun-12 09:59N 46°12' W 123°48'0 0.0
2018-Jun-12 09:29N 46°12' W 123°48'0 0.0
2018-Jun-12 08:59N 46°12' W 123°48'0 0.0
2018-Jun-12 08:29N 46°12' W 123°48'0 0.0
2018-Jun-12 07:56N 46°12' W 123°48'0 0.0
2018-Jun-12 07:26N 46°12' W 123°48'0 0.0
2018-Jun-12 06:50N 46°12' W 123°48'0 0.0
2018-Jun-12 06:29N 46°12' W 123°48'0 0.0
2018-Jun-12 05:59N 46°12' W 123°48'0 0.0
2018-Jun-12 05:29N 46°12' W 123°48'0 0.0
2018-Jun-12 04:59N 46°12' W 123°48'0 0.0
2018-Jun-12 04:29N 46°12' W 123°48'0 0.0
2018-Jun-12 03:56N 46°12' W 123°48'0 0.0
2018-Jun-12 03:14N 46°12' W 123°48'0 0.0
2018-Jun-12 02:59N 46°12' W 123°48'0 0.0
2018-Jun-12 02:17N 46°12' W 123°48'0 0.0
2018-Jun-12 01:59N 46°12' W 123°48'0 0.0
2018-Jun-12 01:29N 46°12' W 123°48'0 0.0
2018-Jun-12 00:59N 46°12' W 123°48'0 0.0
2018-Jun-12 00:29N 46°12' W 123°48'0 0.0
2018-Jun-11 23:59N 46°12' W 123°48'  

Dump ship's entire track history